createdAt,value
2023-01-06T00:02:01.421Z,101740.53
2023-01-06T00:04:47.160Z,101741.38
2023-01-06T00:07:32.879Z,101743.81
2023-01-06T00:10:19.110Z,101740.22
2023-01-06T00:13:06.841Z,101743.72
2023-01-06T00:15:55.385Z,101745.53
2023-01-06T00:18:41.865Z,101740.31
2023-01-06T00:21:27.677Z,101745.63
2023-01-06T00:24:13.348Z,101745.63
2023-01-06T00:26:59.233Z,101749.22
2023-01-06T00:29:45.019Z,101749.03
2023-01-06T00:32:32.297Z,101750.06
2023-01-06T00:35:18.022Z,101749.03
2023-01-06T00:38:03.841Z,101752.63
2023-01-06T00:40:49.589Z,101757.69
2023-01-06T00:43:35.348Z,101762.88
2023-01-06T00:46:21.216Z,101762.03
2023-01-06T00:49:08.913Z,101763.72
2023-01-06T00:51:54.933Z,101754.94
2023-01-06T00:54:40.955Z,101755.66
2023-01-06T00:57:27.200Z,101756.50
2023-01-06T01:00:13.283Z,101764.47
2023-01-06T01:02:59.261Z,101756.44
2023-01-06T01:05:46.363Z,101760.66
2023-01-06T01:08:32.221Z,101765.84
2023-01-06T01:11:31.962Z,101761.50
2023-01-06T01:14:18.806Z,101754.91
2023-01-06T01:17:04.811Z,101755.00
2023-01-06T01:19:50.928Z,101753.00
2023-01-06T01:22:38.176Z,101759.88
2023-01-06T01:25:24.053Z,101754.69
2023-01-06T01:28:09.856Z,101752.78
2023-01-06T01:30:59.681Z,101755.31
2023-01-06T01:33:45.531Z,101751.81
2023-01-06T01:36:31.413Z,101751.59
2023-01-06T01:39:19.841Z,101743.75
2023-01-06T01:42:07.473Z,101747.25
2023-01-06T01:44:54.845Z,101744.59
2023-01-06T01:47:42.997Z,101748.22
2023-01-06T01:50:31.154Z,101745.56
2023-01-06T01:53:17.730Z,101740.28
2023-01-06T01:56:05.949Z,101742.19
2023-01-06T01:58:53.777Z,101738.59
2023-01-06T02:01:39.548Z,101744.72
2023-01-06T02:04:26.070Z,101739.53
2023-01-06T02:07:11.834Z,101733.28
2023-01-06T02:10:00.940Z,101731.59
2023-01-06T02:12:49.238Z,101729.78
2023-01-06T02:15:35.215Z,101723.53
2023-01-06T02:18:27.829Z,101728.00
2023-01-06T02:21:28.819Z,101728.00
2023-01-06T02:24:27.120Z,101724.38
2023-01-06T02:27:20.561Z,101726.06
2023-01-06T02:30:13.756Z,101728.59
2023-01-06T02:33:03.978Z,101714.41
2023-01-06T02:35:55.271Z,101727.53
2023-01-06T02:38:44.716Z,101714.16
2023-01-06T02:41:32.880Z,101701.63
2023-01-06T02:44:20.243Z,101704.19
2023-01-06T02:47:10.809Z,101701.31
2023-01-06T02:49:59.885Z,101688.06
2023-01-06T02:52:47.224Z,101693.13
2023-01-06T02:55:34.734Z,101684.22
2023-01-06T02:58:23.384Z,101688.34
2023-01-06T03:01:10.767Z,101690.97
2023-01-06T03:03:57.277Z,101686.41
2023-01-06T03:06:46.728Z,101670.38
2023-01-06T03:09:35.651Z,101666.66
2023-01-06T03:12:23.689Z,101662.13
2023-01-06T03:15:10.628Z,101657.53
2023-01-06T03:17:56.569Z,101647.66
2023-01-06T03:20:42.244Z,101645.75
2023-01-06T03:23:29.362Z,101643.81
2023-01-06T03:26:15.396Z,101636.81
2023-01-06T03:29:01.791Z,101633.94
2023-01-06T03:31:50.619Z,101630.44
2023-01-06T03:34:40.976Z,101631.16
2023-01-06T03:37:28.125Z,101619.47
2023-01-06T03:40:18.967Z,101609.59
2023-01-06T03:43:13.513Z,101603.25
2023-01-06T03:46:08.438Z,101604.06
2023-01-06T03:48:59.390Z,101596.84
2023-01-06T03:51:47.895Z,101588.78
2023-01-06T03:54:37.945Z,101582.63
2023-01-06T03:57:25.772Z,101579.00
2023-01-06T04:00:13.371Z,101560.44
2023-01-06T04:02:59.160Z,101556.97
2023-01-06T04:05:46.075Z,101548.16
2023-01-06T04:08:32.323Z,101536.34
2023-01-06T04:11:33.389Z,101532.97
2023-01-06T04:14:20.796Z,101517.78
2023-01-06T04:17:07.091Z,101524.78
2023-01-06T04:19:53.822Z,101523.81
2023-01-06T04:22:40.268Z,101509.59
2023-01-06T04:25:27.065Z,101504.16
2023-01-06T04:28:13.317Z,101494.53
2023-01-06T04:31:01.132Z,101483.91
2023-01-06T04:33:47.573Z,101477.66
2023-01-06T04:36:34.143Z,101470.53
2023-01-06T04:39:20.098Z,101474.75
2023-01-06T04:42:05.745Z,101457.78
2023-01-06T04:44:51.581Z,101463.91
2023-01-06T04:47:38.641Z,101438.13
2023-01-06T04:50:24.406Z,101439.09
2023-01-06T04:53:10.917Z,101432.94
2023-01-06T04:55:56.614Z,101422.34
2023-01-06T04:58:42.476Z,101424.03
2023-01-06T05:01:28.674Z,101418.72
2023-01-06T05:04:16.111Z,101410.63
2023-01-06T05:07:02.051Z,101401.97
2023-01-06T05:09:47.934Z,101401.72
2023-01-06T05:12:33.745Z,101403.53
2023-01-06T05:15:20.043Z,101395.69
2023-01-06T05:18:06.301Z,101391.50
2023-01-06T05:20:53.389Z,101392.19
2023-01-06T05:23:39.732Z,101400.03
2023-01-06T05:26:26.873Z,101388.59
2023-01-06T05:29:12.917Z,101385.22
2023-01-06T05:31:59.010Z,101375.59
2023-01-06T05:34:44.790Z,101365.94
2023-01-06T05:37:31.905Z,101369.53
2023-01-06T05:40:17.776Z,101360.66
2023-01-06T05:43:03.648Z,101350.25
2023-01-06T05:45:50.031Z,101347.25
2023-01-06T05:48:36.550Z,101324.25
2023-01-06T05:51:22.558Z,101318.81
2023-01-06T05:54:10.256Z,101298.69
2023-01-06T05:56:56.505Z,101285.31
2023-01-06T05:59:42.770Z,101280.84
2023-01-06T06:02:28.741Z,101255.44
2023-01-06T06:05:14.726Z,101236.88
2023-01-06T06:08:00.901Z,101218.06
2023-01-06T06:10:48.280Z,101195.28
2023-01-06T06:13:34.095Z,101173.81
2023-01-06T06:16:20.844Z,101162.63
2023-01-06T06:19:07.180Z,101143.81
2023-01-06T06:21:53.251Z,101121.75
2023-01-06T06:24:39.235Z,101096.22
2023-01-06T06:27:26.489Z,101073.34
2023-01-06T06:30:12.613Z,101068.03
2023-01-06T06:32:58.695Z,101051.16
2023-01-06T06:35:44.668Z,101033.56
2023-01-06T06:38:30.501Z,100999.81
2023-01-06T06:41:16.477Z,100975.25
2023-01-06T06:44:05.100Z,100962.22
2023-01-06T06:46:51.021Z,100940.06
2023-01-06T06:49:36.964Z,100929.44
2023-01-06T06:52:22.700Z,100912.84
2023-01-06T06:55:08.827Z,100887.03
2023-01-06T06:57:54.909Z,100866.56
2023-01-06T07:00:41.872Z,100840.75
2023-01-06T07:03:27.603Z,100822.56
2023-01-06T07:06:14.131Z,100809.47
2023-01-06T07:08:59.837Z,100798.84
2023-01-06T07:11:45.615Z,100773.03
2023-01-06T07:14:31.448Z,100755.22
2023-01-06T07:17:18.522Z,100740.97
2023-01-06T07:20:04.731Z,100721.44
2023-01-06T07:22:51.025Z,100707.34
2023-01-06T07:25:36.780Z,100686.69
2023-01-06T07:28:22.696Z,100656.53
2023-01-06T07:31:08.469Z,100631.69
2023-01-06T07:33:55.977Z,100605.88
2023-01-06T07:36:41.665Z,100585.34
2023-01-06T07:39:27.487Z,100571.09
2023-01-06T07:42:13.465Z,100552.69
2023-01-06T07:44:59.317Z,100534.00
2023-01-06T07:47:44.913Z,100517.09
2023-01-06T07:50:32.260Z,100489.44
2023-01-06T07:53:18.135Z,100470.63
2023-01-06T07:56:04.493Z,100451.22
2023-01-06T07:58:50.691Z,100439.63
2023-01-06T08:01:36.761Z,100429.84
2023-01-06T08:04:22.927Z,100414.47
2023-01-06T08:07:10.137Z,100400.53
2023-01-06T08:09:55.901Z,100376.22
2023-01-06T08:12:41.570Z,100369.25
2023-01-06T08:15:28.212Z,100369.25
2023-01-06T08:18:14.234Z,100357.50
2023-01-06T08:21:00.692Z,100355.50
2023-01-06T08:23:48.002Z,100348.22
2023-01-06T08:26:33.716Z,100340.97
2023-01-06T08:29:19.479Z,100345.16
2023-01-06T08:32:10.741Z,100331.88
2023-01-06T08:34:56.714Z,100322.78
2023-01-06T08:37:42.455Z,100328.09
2023-01-06T08:40:29.702Z,100335.72
2023-01-06T08:43:15.430Z,100329.44
2023-01-06T08:46:01.570Z,100319.81
2023-01-06T08:48:47.763Z,100302.75
2023-01-06T08:51:34.798Z,100313.22
2023-01-06T08:54:20.710Z,100316.53
2023-01-06T08:57:08.999Z,100323.50
2023-01-06T08:59:54.888Z,100332.44
2023-01-06T09:02:40.676Z,100344.72
2023-01-06T09:05:26.550Z,100345.56
2023-01-06T09:08:12.342Z,100336.94
2023-01-06T09:10:58.109Z,100361.47
2023-01-06T09:13:45.366Z,100380.19
2023-01-06T09:16:31.394Z,100391.66
2023-01-06T09:19:17.402Z,100401.25
2023-01-06T09:22:03.319Z,100422.66
2023-01-06T09:24:49.179Z,100451.97
2023-01-06T09:27:35.194Z,100471.38
2023-01-06T09:30:25.062Z,100501.69
2023-01-06T09:33:11.004Z,100514.81
2023-01-06T09:35:56.770Z,100533.38
2023-01-06T09:38:42.572Z,100527.09
2023-01-06T09:41:49.786Z,100534.22
2023-01-06T09:44:37.545Z,100553.63
2023-01-06T09:47:25.973Z,100573.16
2023-01-06T09:50:14.715Z,100607.81
2023-01-06T09:53:01.343Z,100631.84
2023-01-06T09:55:48.055Z,100664.81
2023-01-06T09:58:34.964Z,100685.19
2023-01-06T10:01:23.297Z,100715.75
2023-01-06T10:04:11.604Z,100730.00
2023-01-06T10:07:00.828Z,100754.59
2023-01-06T10:09:49.824Z,100782.63
2023-01-06T10:12:41.960Z,100804.84
2023-01-06T10:15:30.802Z,100833.72
2023-01-06T10:18:19.736Z,100857.03
2023-01-06T10:21:09.802Z,100875.75
2023-01-06T10:23:58.685Z,100907.28
2023-01-06T10:26:44.945Z,100924.75
2023-01-06T10:29:31.818Z,100931.72
2023-01-06T10:32:18.013Z,100956.59
2023-01-06T10:35:04.206Z,100969.72
2023-01-06T10:37:52.211Z,101006.31
2023-01-06T10:40:38.133Z,101026.53
2023-01-06T10:43:24.067Z,101052.38
2023-01-06T10:46:09.914Z,101066.34
2023-01-06T10:48:55.754Z,101092.44
2023-01-06T10:51:42.392Z,101125.81
2023-01-06T10:54:29.973Z,101139.94
2023-01-06T10:57:17.440Z,101154.19
2023-01-06T11:00:10.344Z,101172.75
2023-01-06T11:03:09.219Z,101198.31
2023-01-06T11:06:01.583Z,101216.44
2023-01-06T11:08:47.639Z,101237.81
2023-01-06T11:11:34.883Z,101242.84
2023-01-06T11:14:21.700Z,101273.31
2023-01-06T11:17:08.787Z,101308.78
2023-01-06T11:20:06.021Z,101323.59
2023-01-06T11:22:52.000Z,101324.91
2023-01-06T11:25:37.816Z,101332.31
2023-01-06T11:28:25.131Z,101359.84
2023-01-06T11:31:11.542Z,101354.69
2023-01-06T11:33:58.020Z,101354.47
2023-01-06T11:36:45.682Z,101344.41
2023-01-06T11:39:33.678Z,101333.81
2023-01-06T11:42:19.327Z,101324.88
2023-01-06T11:45:07.132Z,101311.47
2023-01-06T11:47:52.841Z,101307.00
2023-01-06T11:50:38.872Z,101290.78
2023-01-06T11:53:25.542Z,101274.03
2023-01-06T11:56:18.147Z,101258.09
2023-01-06T11:59:05.055Z,101249.44
2023-01-06T12:01:53.694Z,101245.09
2023-01-06T12:04:39.928Z,101240.41
2023-01-06T12:07:28.004Z,101236.16
2023-01-06T12:10:16.024Z,101217.72
2023-01-06T12:13:01.746Z,101195.22
2023-01-06T12:15:47.886Z,101155.59
2023-01-06T12:18:35.749Z,101137.00
2023-01-06T12:21:24.351Z,101094.03
2023-01-06T12:24:11.160Z,101056.03
2023-01-06T12:26:57.169Z,101015.81
2023-01-06T12:29:43.063Z,100971.22
2023-01-06T12:32:38.514Z,100914.41
2023-01-06T12:35:27.562Z,100857.09
2023-01-06T12:38:15.688Z,100795.06
2023-01-06T12:41:02.427Z,100758.41
2023-01-06T12:43:50.850Z,100711.63
2023-01-06T12:46:37.049Z,100680.28
2023-01-06T12:49:24.052Z,100647.78
2023-01-06T12:52:12.312Z,100614.41
2023-01-06T12:54:59.028Z,100594.09
2023-01-06T12:57:47.921Z,100570.25
2023-01-06T13:00:37.879Z,100559.22
2023-01-06T13:03:31.478Z,100547.00
2023-01-06T13:06:26.623Z,100528.09
2023-01-06T13:09:18.333Z,100515.44
2023-01-06T13:12:23.717Z,100502.22
2023-01-06T13:15:12.228Z,100490.88
2023-01-06T13:18:00.796Z,100479.88
2023-01-06T13:20:47.675Z,100466.84
2023-01-06T13:23:41.527Z,100453.44
2023-01-06T13:26:32.823Z,100459.78
2023-01-06T13:29:21.602Z,100440.22
2023-01-06T13:32:12.020Z,100432.94
2023-01-06T13:35:01.854Z,100424.00
2023-01-06T13:37:52.310Z,100424.00
2023-01-06T13:40:38.819Z,100419.00
2023-01-06T13:43:26.763Z,100413.38
2023-01-06T13:46:13.167Z,100406.41
2023-01-06T13:48:59.711Z,100409.38
2023-01-06T13:51:45.667Z,100420.31
2023-01-06T13:54:51.012Z,100404.47
2023-01-06T13:57:38.665Z,100409.88
2023-01-06T14:00:26.920Z,100399.72
2023-01-06T14:03:22.825Z,100379.25
2023-01-06T14:06:10.729Z,100382.53
2023-01-06T14:08:57.608Z,100377.31
2023-01-06T14:11:43.357Z,100379.63
2023-01-06T14:14:30.804Z,100377.38
2023-01-06T14:17:28.772Z,100370.56
2023-01-06T14:20:20.489Z,100374.00
2023-01-06T14:23:06.685Z,100374.97
2023-01-06T14:25:53.212Z,100377.06
2023-01-06T14:28:39.361Z,100389.97
2023-01-06T14:31:46.457Z,100404.84
2023-01-06T14:34:33.818Z,100409.06
2023-01-06T14:37:20.020Z,100417.50
2023-01-06T14:40:06.677Z,100425.69
2023-01-06T14:42:52.483Z,100431.81
2023-01-06T14:45:39.522Z,100443.16
2023-01-06T14:48:25.722Z,100455.06
2023-01-06T14:51:14.536Z,100479.94
2023-01-06T14:54:04.022Z,100487.66
2023-01-06T14:56:52.929Z,100512.25
2023-01-06T14:59:38.612Z,100529.41
2023-01-06T15:02:25.872Z,100548.97
2023-01-06T15:05:16.665Z,100576.31
2023-01-06T15:08:04.517Z,100595.56
2023-01-06T15:10:51.289Z,100619.69
2023-01-06T15:13:37.375Z,100641.31
2023-01-06T15:16:25.012Z,100662.47
2023-01-06T15:19:13.529Z,100685.88
2023-01-06T15:22:00.123Z,100711.31
2023-01-06T15:24:47.590Z,100738.75
2023-01-06T15:27:33.538Z,100760.72
2023-01-06T15:30:20.134Z,100779.66
2023-01-06T15:33:05.944Z,100800.78
2023-01-06T15:35:51.761Z,100814.25
2023-01-06T15:38:38.041Z,100830.53
2023-01-06T15:41:34.206Z,100836.94
2023-01-06T15:44:22.199Z,100852.78
2023-01-06T15:47:10.280Z,100873.03
2023-01-06T15:49:57.448Z,100894.47
2023-01-06T15:52:45.341Z,100906.97
2023-01-06T15:55:32.628Z,100934.00
2023-01-06T15:58:21.466Z,100948.31
2023-01-06T16:01:08.012Z,100975.47
2023-01-06T16:03:54.480Z,100990.63
2023-01-06T16:06:40.859Z,101016.97
2023-01-06T16:09:27.761Z,101041.72
2023-01-06T16:12:17.835Z,101055.09
2023-01-06T16:15:18.688Z,101077.22
2023-01-06T16:18:07.440Z,101102.69
2023-01-06T16:20:53.414Z,101116.75
2023-01-06T16:23:39.157Z,101139.97
2023-01-06T16:26:25.785Z,101159.44
2023-01-06T16:29:23.269Z,101168.59
2023-01-06T16:32:20.633Z,101183.00
2023-01-06T16:35:11.693Z,101198.13
2023-01-06T16:37:57.724Z,101209.69
2023-01-06T16:40:43.552Z,101223.84
2023-01-06T16:43:29.557Z,101234.44
2023-01-06T16:46:17.699Z,101238.88
2023-01-06T16:49:09.290Z,101255.84
2023-01-06T16:51:56.861Z,101264.00
2023-01-06T16:54:42.766Z,101266.06
2023-01-06T16:57:28.594Z,101280.66
2023-01-06T17:00:15.228Z,101299.53
2023-01-06T17:03:01.474Z,101315.03
2023-01-06T17:05:47.302Z,101321.81
2023-01-06T17:08:35.871Z,101339.59
2023-01-06T17:11:22.548Z,101344.16
2023-01-06T17:14:11.141Z,101364.34
2023-01-06T17:16:56.870Z,101376.81
2023-01-06T17:19:42.821Z,101393.53
2023-01-06T17:22:29.279Z,101402.19
2023-01-06T17:25:16.337Z,101408.31
2023-01-06T17:28:02.231Z,101421.50
2023-01-06T17:30:48.108Z,101437.88
2023-01-06T17:33:34.004Z,101439.78
2023-01-06T17:36:22.796Z,101458.06
2023-01-06T17:39:13.331Z,101460.69
2023-01-06T17:42:02.776Z,101466.84
2023-01-06T17:44:49.309Z,101469.59
2023-01-06T17:47:36.504Z,101474.16
2023-01-06T17:50:29.156Z,101464.75
2023-01-06T17:53:33.369Z,101471.34
2023-01-06T17:56:20.344Z,101478.66
2023-01-06T17:59:10.419Z,101488.44
2023-01-06T18:01:56.548Z,101494.38
2023-01-06T18:04:42.341Z,101500.63
2023-01-06T18:07:28.563Z,101504.97
2023-01-06T18:10:15.339Z,101519.97
2023-01-06T18:13:01.322Z,101521.84
2023-01-06T18:15:48.937Z,101526.28
2023-01-06T18:18:36.950Z,101529.03
2023-01-06T18:21:26.737Z,101543.19
2023-01-06T18:24:16.682Z,101542.97
2023-01-06T18:27:04.040Z,101546.41
2023-01-06T18:29:50.125Z,101551.47
2023-01-06T18:32:37.921Z,101549.44
2023-01-06T18:35:27.546Z,101556.41
2023-01-06T18:38:13.329Z,101563.72
2023-01-06T18:40:59.119Z,101560.00
2023-01-06T18:43:44.997Z,101568.03
2023-01-06T18:46:31.172Z,101569.84
2023-01-06T18:49:18.983Z,101562.03
2023-01-06T18:52:08.869Z,101561.19
2023-01-06T18:54:55.018Z,101559.50
2023-01-06T18:57:45.631Z,101558.66
2023-01-06T19:00:41.620Z,101548.38
2023-01-06T19:03:32.827Z,101541.50
2023-01-06T19:06:33.661Z,101539.19
2023-01-06T19:09:22.559Z,101539.75
2023-01-06T19:12:16.527Z,101537.53
2023-01-06T19:15:09.658Z,101530.03
2023-01-06T19:17:55.565Z,101529.28
2023-01-06T19:20:41.905Z,101533.63
2023-01-06T19:23:27.895Z,101535.31
2023-01-06T19:26:16.845Z,101540.69
2023-01-06T19:29:02.951Z,101539.53
2023-01-06T19:31:50.110Z,101540.69
2023-01-06T19:34:36.261Z,101538.69
2023-01-06T19:37:21.958Z,101549.56
2023-01-06T19:40:08.534Z,101539.41
2023-01-06T19:42:55.762Z,101549.44
2023-01-06T19:45:41.681Z,101543.81
2023-01-06T19:48:30.300Z,101546.03
2023-01-06T19:51:20.389Z,101545.31
2023-01-06T19:54:13.170Z,101547.41
2023-01-06T19:56:59.124Z,101560.28
2023-01-06T19:59:46.164Z,101563.41
2023-01-06T20:02:32.931Z,101563.25
2023-01-06T20:05:19.206Z,101560.94
2023-01-06T20:08:05.338Z,101570.84
2023-01-06T20:10:51.086Z,101583.56
2023-01-06T20:13:36.898Z,101587.34
2023-01-06T20:16:24.010Z,101590.44
2023-01-06T20:19:09.853Z,101604.06
2023-01-06T20:21:56.244Z,101611.50
2023-01-06T20:24:42.171Z,101623.63
2023-01-06T20:27:28.181Z,101629.66
2023-01-06T20:30:14.096Z,101636.00
2023-01-06T20:33:02.081Z,101648.34
2023-01-06T20:35:48.248Z,101656.47
2023-01-06T20:38:33.936Z,101657.50
2023-01-06T20:41:19.661Z,101657.09
2023-01-06T20:44:05.603Z,101659.09
2023-01-06T20:46:51.322Z,101666.16
2023-01-06T20:49:39.211Z,101664.97
2023-01-06T20:52:25.377Z,101671.50
2023-01-06T20:55:11.113Z,101659.56
2023-01-06T20:57:56.945Z,101670.50
2023-01-06T21:00:42.684Z,101658.66
2023-01-06T21:03:28.424Z,101660.75
2023-01-06T21:06:16.068Z,101652.94
2023-01-06T21:09:01.707Z,101643.03
2023-01-06T21:11:47.854Z,101638.97
2023-01-06T21:14:34.099Z,101640.03
2023-01-06T21:17:19.854Z,101641.28
2023-01-06T21:20:06.244Z,101639.59
2023-01-06T21:22:53.252Z,101639.59
2023-01-06T21:25:39.117Z,101639.19
2023-01-06T21:28:24.993Z,101636.00
2023-01-06T21:31:10.771Z,101635.16
2023-01-06T21:33:57.008Z,101639.06
2023-01-06T21:36:42.896Z,101636.53
2023-01-06T21:39:30.192Z,101645.28
2023-01-06T21:42:33.669Z,101638.97
2023-01-06T21:45:19.821Z,101635.91
2023-01-06T21:48:05.803Z,101642.34
2023-01-06T21:50:52.106Z,101638.84
2023-01-06T21:53:38.742Z,101634.53
2023-01-06T21:56:25.727Z,101628.19
2023-01-06T21:59:11.510Z,101636.00
2023-01-06T22:01:57.493Z,101631.28
2023-01-06T22:04:43.810Z,101634.75
2023-01-06T22:07:29.935Z,101635.91
2023-01-06T22:10:16.288Z,101639.66
2023-01-06T22:13:03.821Z,101648.91
2023-01-06T22:15:49.457Z,101652.38
2023-01-06T22:18:35.983Z,101646.16
2023-01-06T22:21:22.108Z,101652.94
2023-01-06T22:24:08.532Z,101643.88
2023-01-06T22:26:54.300Z,101638.50
2023-01-06T22:29:41.647Z,101651.19
2023-01-06T22:32:28.399Z,101651.28
2023-01-06T22:35:14.618Z,101653.53
2023-01-06T22:38:00.748Z,101645.63
2023-01-06T22:40:47.277Z,101654.94
2023-01-06T22:43:33.038Z,101658.00
2023-01-06T22:46:20.242Z,101649.22
2023-01-06T22:49:06.621Z,101652.59
2023-01-06T22:51:53.320Z,101649.38
2023-01-06T22:54:39.205Z,101636.59
2023-01-06T22:57:25.552Z,101640.94
2023-01-06T23:00:12.887Z,101642.34
2023-01-06T23:03:00.088Z,101652.69
2023-01-06T23:05:45.921Z,101649.94
2023-01-06T23:08:33.296Z,101657.97
2023-01-06T23:11:20.016Z,101658.53
2023-01-06T23:14:05.866Z,101656.28
2023-01-06T23:16:51.793Z,101653.78
2023-01-06T23:19:39.088Z,101656.72
2023-01-06T23:22:25.281Z,101653.13
2023-01-06T23:25:11.292Z,101650.03
2023-01-06T23:27:56.984Z,101651.63
2023-01-06T23:30:42.743Z,101648.47
2023-01-06T23:33:28.524Z,101653.41
2023-01-06T23:36:16.448Z,101656.69
2023-01-06T23:39:03.095Z,101652.25
2023-01-06T23:41:49.193Z,101647.16
2023-01-06T23:44:35.195Z,101648.28
2023-01-06T23:47:20.942Z,101654.00
2023-01-06T23:50:06.939Z,101651.75
2023-01-06T23:52:54.875Z,101662.09
2023-01-06T23:55:40.807Z,101665.38
2023-01-06T23:58:27.562Z,101670.34
